Time;durP1;ratioP1;P1;durP2;ratioP2;P2;SDS_P1;SDS_P2;PMS_P1;PMS_P2;Temp;Humidity;BMP_temperature;BMP_pressure;BME280_temperature;BME280_humidity;BME280_pressure;Samples;Min_cycle;Max_cycle;Signal;HPM_P1;HPM_P2
2023/12/21 00:00:26;;;;;;;4.63;2.70;;;0.80;99.90;-0.30;98421;;;;556230;254;24082;-75
2023/12/21 00:02:54;;;;;;;4.50;3.40;;;0.80;99.90;-0.30;98417;;;;555331;254;24103;-76
2023/12/21 00:05:22;;;;;;;5.23;3.00;;;0.80;99.90;-0.30;98408;;;;555505;254;24100;-77
2023/12/21 00:07:50;;;;;;;3.57;2.77;;;0.80;99.90;-0.20;98404;;;;555565;254;24099;-77
2023/12/21 00:10:18;;;;;;;4.37;2.67;;;0.80;99.90;-0.20;98404;;;;555508;254;24111;-76
2023/12/21 00:12:46;;;;;;;5.40;3.20;;;0.80;99.90;-0.10;98399;;;;555413;254;24080;-77
2023/12/21 00:15:14;;;;;;;6.80;3.30;;;0.90;99.90;-0.10;98414;;;;554985;254;24116;-76
2023/12/21 00:17:42;;;;;;;6.77;2.97;;;0.90;99.90;0.00;98420;;;;555597;254;24132;-77
2023/12/21 00:20:10;;;;;;;6.80;2.80;;;1.00;99.90;0.10;98429;;;;555599;253;24099;-79
2023/12/21 00:22:37;;;;;;;4.70;3.20;;;1.10;99.90;0.20;98415;;;;555390;255;24088;-76
2023/12/21 00:25:05;;;;;;;6.47;3.07;;;1.10;99.90;0.20;98420;;;;554903;255;24143;-76
2023/12/21 00:27:33;;;;;;;6.13;2.90;;;1.20;99.90;0.30;98415;;;;554741;254;24093;-76
2023/12/21 00:30:02;;;;;;;5.00;3.30;;;1.30;99.90;0.30;98420;;;;555493;255;24112;-80
2023/12/21 00:32:30;;;;;;;5.37;2.97;;;1.30;99.90;0.40;98424;;;;554715;255;24083;-75
2023/12/21 00:34:58;;;;;;;5.10;2.53;;;1.40;99.90;0.40;98422;;;;562607;253;24104;-75
2023/12/21 00:37:26;;;;;;;5.50;2.60;;;1.40;99.90;0.50;98413;;;;554873;255;24119;-75
2023/12/21 00:39:56;;;;;;;6.37;2.73;;;1.50;99.90;0.50;98405;;;;554810;255;24103;-78
2023/12/21 00:42:22;;;;;;;3.70;2.73;;;1.50;99.90;0.50;98402;;;;555253;255;24100;-76
2023/12/21 00:44:50;;;;;;;5.57;3.20;;;1.50;99.90;0.40;98395;;;;555176;255;24139;-75
2023/12/21 00:47:19;;;;;;;4.47;2.70;;;1.40;99.90;0.30;98397;;;;555611;255;24107;-76
2023/12/21 00:49:47;;;;;;;8.63;3.70;;;1.30;99.90;0.20;98396;;;;555518;255;24067;-75
2023/12/21 00:52:15;;;;;;;4.80;2.77;;;1.20;99.90;0.20;98386;;;;555604;255;24083;-75
2023/12/21 00:54:43;;;;;;;5.27;3.10;;;1.20;99.90;0.10;98384;;;;555595;255;24095;-76
2023/12/21 00:57:11;;;;;;;3.83;3.10;;;1.10;99.90;0.00;98384;;;;555564;255;24080;-76
2023/12/21 00:59:40;;;;;;;8.30;3.13;;;1.00;99.90;-0.10;98386;;;;556994;254;24087;-75
2023/12/21 01:02:07;;;;;;;3.90;2.80;;;1.00;99.90;-0.10;98376;;;;556517;253;24104;-78
2023/12/21 01:04:39;;;;;;;7.87;3.07;;;0.90;99.90;-0.10;98363;;;;555429;254;24165;-77
2023/12/21 01:07:06;;;;;;;5.33;2.97;;;0.90;99.90;-0.20;98379;;;;555119;254;24115;-76
2023/12/21 01:09:33;;;;;;;7.17;2.70;;;0.90;99.90;-0.20;98377;;;;554840;254;24124;-77
2023/12/21 01:11:58;;;;;;;7.67;3.50;;;0.80;99.90;-0.30;98364;;;;555329;254;24129;-76
2023/12/21 01:14:30;;;;;;;6.00;3.13;;;0.80;99.90;-0.30;98370;;;;555524;254;24119;-76
2023/12/21 01:16:54;;;;;;;8.17;3.23;;;0.70;99.90;-0.30;98368;;;;554576;254;24103;-77
2023/12/21 01:19:22;;;;;;;7.93;3.60;;;0.70;99.90;-0.30;98366;;;;555591;254;24164;-77
2023/12/21 01:21:53;;;;;;;7.73;3.50;;;0.70;99.90;-0.30;98367;;;;555412;254;24092;-78
2023/12/21 01:24:18;;;;;;;9.47;3.07;;;0.70;99.90;-0.30;98365;;;;554761;254;24119;-75
2023/12/21 01:26:46;;;;;;;4.93;2.90;;;0.70;99.90;-0.20;98362;;;;555475;254;24073;-81
2023/12/21 01:29:14;;;;;;;6.67;3.70;;;0.70;99.90;-0.10;98370;;;;555644;254;24108;-81
2023/12/21 01:31:42;;;;;;;5.90;3.60;;;0.90;99.90;0.00;98358;;;;555704;254;24073;-81
2023/12/21 01:34:10;;;;;;;8.57;3.40;;;1.00;99.90;0.10;98361;;;;554938;255;24113;-82
2023/12/21 01:36:37;;;;;;;7.37;3.57;;;1.10;99.90;0.10;98350;;;;555406;255;24107;-84
2023/12/21 01:39:06;;;;;;;12.37;3.87;;;1.10;99.90;0.10;98346;;;;554808;255;24100;-83
2023/12/21 01:41:33;;;;;;;5.40;3.40;;;1.10;99.90;0.20;98344;;;;555405;255;24106;-84
2023/12/21 01:44:02;;;;;;;8.17;3.47;;;1.20;99.90;0.20;98342;;;;555467;255;24139;-79
2023/12/21 01:46:29;;;;;;;11.57;3.93;;;1.20;99.90;0.10;98336;;;;555537;255;25145;-84
2023/12/21 01:49:00;;;;;;;6.90;3.03;;;1.10;99.90;0.10;98335;;;;555182;255;25134;-79
2023/12/21 01:51:25;;;;;;;8.97;3.73;;;1.10;99.90;0.20;98331;;;;554846;255;24119;-83
2023/12/21 01:53:54;;;;;;;4.87;2.47;;;1.20;99.90;0.20;98337;;;;555152;255;24156;-83
2023/12/21 01:56:24;;;;;;;9.27;3.17;;;1.20;99.90;0.30;98323;;;;555547;255;24095;-83
2023/12/21 01:58:53;;;;;;;3.75;2.05;;;1.30;99.90;0.30;98321;;;;550061;255;35303;-81
2023/12/21 02:01:18;;;;;;;1.93;1.70;;;1.30;99.90;0.40;98309;;;;555026;255;24103;-84
2023/12/21 02:03:49;;;;;;;4.60;1.50;;;1.40;99.90;0.40;98314;;;;555077;255;24118;-82
2023/12/21 02:06:15;;;;;;;4.57;2.40;;;1.40;99.90;0.40;98307;;;;554503;255;24192;-78
2023/12/21 02:08:42;;;;;;;7.10;3.20;;;1.40;99.90;0.40;98289;;;;555158;255;24104;-84
2023/12/21 02:11:13;;;;;;;9.43;2.97;;;1.40;99.90;0.40;98293;;;;556950;254;24113;-83
2023/12/21 02:13:42;;;;;;;4.70;2.87;;;1.40;99.90;0.40;98292;;;;556136;254;24145;-80
2023/12/21 02:16:16;;;;;;;6.27;3.23;;;1.40;99.90;0.40;98283;;;;555722;254;25149;-83
2023/12/21 02:18:48;;;;;;;6.03;3.00;;;1.40;99.90;0.50;98275;;;;555508;254;24104;-82
2023/12/21 02:21:12;;;;;;;7.80;3.87;;;1.50;99.90;0.50;98272;;;;555139;254;24158;-78
2023/12/21 02:23:42;;;;;;;9.47;3.50;;;1.50;99.90;0.50;98279;;;;555854;254;24080;-82
2023/12/21 02:26:08;;;;;;;10.50;3.63;;;1.50;99.90;0.40;98267;;;;555199;254;24121;-86
2023/12/21 02:28:36;;;;;;;9.30;4.23;;;1.50;99.90;0.40;98280;;;;555707;254;24103;-80
2023/12/21 02:31:04;;;;;;;9.13;4.40;;;1.40;99.90;0.40;98274;;;;555342;254;24181;-83
2023/12/21 02:33:32;;;;;;;8.83;3.67;;;1.40;99.90;0.40;98272;;;;555051;254;24107;-81
2023/12/21 02:36:00;;;;;;;9.43;3.63;;;1.40;99.90;0.50;98262;;;;555240;254;24113;-80
2023/12/21 02:38:28;;;;;;;12.97;3.93;;;1.40;99.90;0.60;98262;;;;555457;254;24107;-84
2023/12/21 02:40:58;;;;;;;9.17;3.90;;;1.60;99.90;0.60;98263;;;;555905;254;24120;-83
2023/12/21 02:43:24;;;;;;;9.00;3.30;;;1.60;99.90;0.70;98264;;;;555625;254;24088;-82
2023/12/21 02:45:52;;;;;;;9.73;3.83;;;1.70;99.90;0.80;98259;;;;555123;255;24118;-82
2023/12/21 02:48:20;;;;;;;4.83;3.07;;;1.70;99.90;0.90;98250;;;;555283;255;25141;-78
2023/12/21 02:50:48;;;;;;;6.10;3.93;;;1.80;99.90;0.90;98248;;;;555607;255;24082;-77
2023/12/21 02:53:17;;;;;;;4.20;2.53;;;1.90;99.90;0.90;98232;;;;555594;255;24090;-82
2023/12/21 02:55:45;;;;;;;6.10;3.00;;;1.90;99.90;1.00;98236;;;;555570;255;24080;-81
2023/12/21 02:58:13;;;;;;;6.37;3.20;;;2.00;99.90;1.00;98231;;;;555669;255;24103;-79
2023/12/21 03:00:41;;;;;;;7.83;3.10;;;2.00;99.90;1.00;98226;;;;555607;255;24091;-76
2023/12/21 03:03:09;;;;;;;6.73;2.50;;;2.00;99.90;1.10;98226;;;;555634;255;24101;-80
2023/12/21 03:05:37;;;;;;;8.67;3.10;;;2.00;99.90;1.10;98222;;;;555124;255;24098;-84
2023/12/21 03:08:05;;;;;;;6.50;3.77;;;2.10;99.90;1.10;98219;;;;554687;255;24130;-78
2023/12/21 03:10:33;;;;;;;5.73;2.93;;;2.10;99.90;1.20;98218;;;;555156;255;24127;-81
2023/12/21 03:13:01;;;;;;;6.07;3.47;;;2.20;99.90;1.20;98212;;;;555177;255;24077;-80
2023/12/21 03:15:31;;;;;;;10.83;3.13;;;2.20;99.90;1.30;98224;;;;555410;255;24114;-82
2023/12/21 03:17:58;;;;;;;4.07;2.97;;;2.20;99.90;1.30;98201;;;;555193;255;24173;-79
2023/12/21 03:20:26;;;;;;;7.67;3.47;;;2.30;99.90;1.30;98194;;;;555618;255;24108;-82
2023/12/21 03:22:54;;;;;;;3.67;2.63;;;2.30;99.90;1.30;98187;;;;556994;254;24090;-84
2023/12/21 03:25:22;;;;;;;2.10;1.90;;;2.30;99.90;1.30;98184;;;;556518;254;24091;-84
2023/12/21 03:27:50;;;;;;;4.93;2.40;;;2.30;99.90;1.30;98180;;;;556359;254;24121;-84
2023/12/21 03:30:18;;;;;;;3.17;2.37;;;2.30;99.90;1.30;98177;;;;556085;254;24091;-82
2023/12/21 03:32:49;;;;;;;3.70;1.60;;;2.20;99.90;1.20;98165;;;;556097;254;24099;-82
2023/12/21 03:35:15;;;;;;;4.17;2.13;;;2.10;99.90;1.10;98156;;;;555375;254;24107;-85
2023/12/21 03:37:43;;;;;;;5.23;2.57;;;2.00;99.90;1.00;98149;;;;555562;254;24118;-85
2023/12/21 03:40:15;;;;;;;9.30;2.13;;;2.00;99.90;0.90;98145;;;;555605;254;24165;-78
2023/12/21 03:42:39;;;;;;;6.93;3.63;;;1.90;99.90;0.90;98141;;;;554802;254;24123;-75
2023/12/21 03:45:07;;;;;;;8.07;4.57;;;1.90;99.90;0.80;98122;;;;555580;254;24135;-81
2023/12/21 03:47:35;;;;;;;12.63;5.47;;;1.80;99.90;0.70;98123;;;;555449;254;24094;-77
2023/12/21 03:50:03;;;;;;;7.17;4.63;;;1.70;99.90;0.70;98122;;;;555631;254;24091;-76
2023/12/21 03:52:31;;;;;;;9.67;5.03;;;1.60;99.90;0.70;98115;;;;555894;254;24139;-77
2023/12/21 03:54:59;;;;;;;7.17;4.43;;;1.60;99.90;0.60;98123;;;;555774;254;24124;-76
2023/12/21 03:57:28;;;;;;;12.27;5.30;;;1.60;99.90;0.60;98126;;;;555709;255;24119;-76
2023/12/21 03:59:56;;;;;;;10.33;5.60;;;1.60;99.90;0.60;98122;;;;555806;255;24106;-76
2023/12/21 04:02:24;;;;;;;14.30;4.43;;;1.60;99.90;0.70;98116;;;;555620;255;24094;-84
2023/12/21 04:04:52;;;;;;;9.53;5.20;;;1.60;99.90;0.70;98115;;;;555140;255;24177;-77
2023/12/21 04:07:19;;;;;;;10.07;5.28;;;1.70;99.90;0.80;98126;;;;550703;255;35323;-76
2023/12/21 04:09:47;;;;;;;2.93;2.10;;;1.70;99.90;0.90;98119;;;;554843;255;24102;-76
2023/12/21 04:12:18;;;;;;;8.23;2.63;;;1.80;99.90;0.90;98118;;;;555153;255;24111;-77
2023/12/21 04:14:43;;;;;;;11.13;3.77;;;1.90;99.90;1.00;98112;;;;554607;255;24187;-76
2023/12/21 04:17:11;;;;;;;14.60;4.53;;;1.90;99.90;1.00;98106;;;;555252;255;24103;-76
2023/12/21 04:19:39;;;;;;;6.13;4.17;;;2.00;99.90;1.10;98100;;;;555333;255;24104;-78
2023/12/21 04:22:07;;;;;;;7.90;4.63;;;2.10;99.90;1.20;98102;;;;555070;255;24083;-84
2023/12/21 04:24:35;;;;;;;7.50;4.10;;;2.20;99.90;1.20;98087;;;;555591;255;24102;-77
2023/12/21 04:27:06;;;;;;;6.33;4.17;;;2.20;99.90;1.30;98071;;;;555736;255;24115;-77
2023/12/21 04:29:31;;;;;;;8.73;3.70;;;2.30;99.90;1.40;98072;;;;555021;255;24104;-79
2023/12/21 04:32:00;;;;;;;7.12;3.08;;;2.30;99.90;1.40;98072;;;;550690;255;35319;-79
2023/12/21 04:34:27;;;;;;;3.97;2.30;;;2.40;99.90;1.50;98065;;;;556856;254;24103;-81
2023/12/21 04:36:56;;;;;;;4.67;2.07;;;2.50;99.90;1.50;98067;;;;556516;254;24095;-80
2023/12/21 04:39:24;;;;;;;2.27;2.00;;;2.50;99.90;1.60;98064;;;;555565;254;24099;-79
2023/12/21 04:41:52;;;;;;;6.20;2.07;;;2.60;99.90;1.60;98051;;;;555823;254;24114;-82
2023/12/21 04:44:20;;;;;;;7.77;2.87;;;2.60;99.90;1.60;98053;;;;555771;254;24107;-83
2023/12/21 04:46:49;;;;;;;1.40;1.37;;;2.60;99.90;1.70;98042;;;;555695;254;25119;-82
2023/12/21 04:49:20;;;;;;;7.03;1.60;;;2.60;99.90;1.70;98051;;;;555186;254;24154;-82
2023/12/21 04:51:45;;;;;;;2.20;2.00;;;2.60;99.90;1.70;98057;;;;554822;254;24142;-78
2023/12/21 04:54:15;;;;;;;5.67;1.47;;;2.60;99.90;1.70;98055;;;;555798;254;24134;-86
2023/12/21 04:56:40;;;;;;;1.70;1.37;;;2.70;99.90;1.70;98056;;;;555309;254;24122;-82
2023/12/21 04:59:10;;;;;;;3.40;1.43;;;2.70;99.90;1.80;98040;;;;555189;254;24120;-79
2023/12/21 05:01:36;;;;;;;3.40;2.67;;;2.70;99.90;1.80;98033;;;;550330;254;35273;-84
2023/12/21 05:04:04;;;;;;;3.73;1.80;;;2.70;99.90;1.80;98044;;;;555767;254;24412;-82
2023/12/21 05:06:32;;;;;;;2.47;1.50;;;2.70;99.90;1.80;98031;;;;555373;254;24099;-79
2023/12/21 05:09:00;;;;;;;3.00;1.30;;;2.70;99.90;1.80;98031;;;;555589;255;24112;-78
2023/12/21 05:11:29;;;;;;;1.20;1.20;;;2.70;99.90;1.80;98025;;;;555167;255;24119;-76
2023/12/21 05:13:57;;;;;;;4.30;1.90;;;2.70;99.90;1.70;98014;;;;555347;255;24105;-79
2023/12/21 05:16:24;;;;;;;2.30;1.57;;;2.70;99.90;1.70;98005;;;;555290;255;24171;-81
2023/12/21 05:18:52;;;;;;;1.50;1.40;;;2.70;99.90;1.80;98022;;;;555446;255;24099;-80
2023/12/21 05:21:20;;;;;;;5.43;1.70;;;2.70;99.90;1.70;97997;;;;555265;255;24073;-83
2023/12/21 05:23:48;;;;;;;4.83;1.33;;;2.70;99.90;1.80;97996;;;;555678;255;24085;-77
2023/12/21 05:26:19;;;;;;;2.23;1.30;;;2.70;99.90;1.80;98004;;;;555731;255;24213;-82
2023/12/21 05:28:44;;;;;;;4.17;1.90;;;2.80;99.90;1.90;97995;;;;555008;255;24134;-81
2023/12/21 05:31:12;;;;;;;1.83;1.40;;;2.80;99.90;1.90;97989;;;;555600;255;24087;-81
2023/12/21 05:33:41;;;;;;;3.43;2.47;;;2.80;99.90;1.90;97975;;;;555634;255;24087;-83
2023/12/21 05:36:08;;;;;;;6.30;1.30;;;2.80;99.90;1.90;97975;;;;553550;255;24122;-79
2023/12/21 05:38:36;;;;;;;3.27;1.70;;;2.90;99.90;2.00;97968;;;;555621;255;24111;-81
2023/12/21 05:41:05;;;;;;;2.20;2.00;;;2.90;99.90;2.00;97973;;;;555312;255;24099;-78
2023/12/21 05:43:33;;;;;;;1.77;1.57;;;2.90;99.90;2.00;97973;;;;555321;255;24112;-79
2023/12/21 05:46:02;;;;;;;2.03;1.93;;;2.90;99.90;2.00;97969;;;;556275;254;24129;-76
2023/12/21 05:48:32;;;;;;;2.47;2.17;;;2.90;99.90;2.00;97957;;;;556364;254;24091;-76
2023/12/21 05:50:58;;;;;;;3.93;2.97;;;3.00;99.90;2.00;97947;;;;555407;254;24131;-76
2023/12/21 05:53:26;;;;;;;3.27;2.50;;;3.00;99.90;2.10;97950;;;;555938;254;24089;-77
2023/12/21 05:55:54;;;;;;;3.20;2.93;;;3.00;99.90;2.10;97937;;;;555584;254;24100;-79
2023/12/21 05:58:22;;;;;;;5.33;3.70;;;3.00;99.90;2.10;97934;;;;555646;254;24080;-79
2023/12/21 06:00:50;;;;;;;5.23;3.27;;;3.00;99.90;2.10;97927;;;;555610;254;24087;-76
2023/12/21 06:03:18;;;;;;;3.60;2.70;;;3.10;99.90;2.10;97932;;;;555922;254;24143;-75
2023/12/21 06:05:46;;;;;;;8.37;3.60;;;3.00;99.90;2.10;97916;;;;555331;254;25173;-78
2023/12/21 06:08:14;;;;;;;5.67;2.33;;;3.10;99.90;2.20;97907;;;;555811;254;24136;-79
2023/12/21 06:10:42;;;;;;;4.20;2.50;;;3.10;99.90;2.10;97897;;;;555884;254;24135;-76
2023/12/21 06:13:10;;;;;;;3.50;2.47;;;3.10;99.90;2.10;97899;;;;555086;254;24100;-79
2023/12/21 06:15:38;;;;;;;6.93;3.57;;;3.10;99.90;2.20;97881;;;;555029;254;24109;-76
2023/12/21 06:18:06;;;;;;;4.20;2.33;;;3.10;99.90;2.10;97885;;;;555653;254;24096;-80
2023/12/21 06:20:35;;;;;;;2.37;2.17;;;3.10;99.90;2.10;97880;;;;555399;255;24100;-79
2023/12/21 06:23:05;;;;;;;5.83;2.57;;;3.00;99.90;2.10;97878;;;;555139;255;24069;-77
2023/12/21 06:25:31;;;;;;;4.73;3.00;;;3.10;99.90;2.10;97881;;;;554890;255;24100;-79
2023/12/21 06:27:59;;;;;;;6.67;2.93;;;3.00;99.90;2.10;97873;;;;555137;255;24093;-81
2023/12/21 06:30:27;;;;;;;2.53;1.80;;;3.00;99.90;2.00;97864;;;;555609;255;24098;-84
2023/12/21 06:32:55;;;;;;;4.37;1.70;;;3.00;99.90;2.00;97859;;;;555189;255;24103;-82
2023/12/21 06:35:26;;;;;;;2.17;1.97;;;2.90;99.90;1.90;97855;;;;555582;255;24109;-76
2023/12/21 06:37:50;;;;;;;2.07;1.73;;;2.90;99.90;1.90;97854;;;;554774;255;24100;-82
2023/12/21 06:40:18;;;;;;;2.90;2.17;;;2.80;99.90;1.80;97847;;;;555191;255;25136;-82
2023/12/21 06:42:46;;;;;;;4.37;1.93;;;2.80;99.90;1.80;97842;;;;555061;255;24115;-79
2023/12/21 06:45:14;;;;;;;2.40;1.80;;;2.70;99.90;1.80;97839;;;;555355;255;24114;-85
2023/12/21 06:47:42;;;;;;;2.47;2.20;;;2.80;99.90;1.80;97835;;;;555494;255;24107;-85
2023/12/21 06:50:10;;;;;;;3.97;2.07;;;2.70;99.90;1.80;97830;;;;554955;255;24096;-83
2023/12/21 06:52:38;;;;;;;3.60;2.27;;;2.70;99.90;1.80;97824;;;;555422;255;24104;-85
2023/12/21 06:55:06;;;;;;;3.13;2.83;;;2.70;99.90;1.80;97815;;;;554917;255;24094;-85
2023/12/21 06:57:34;;;;;;;4.57;2.60;;;2.70;99.90;1.80;97815;;;;556561;254;24113;-77
2023/12/21 07:00:02;;;;;;;1.53;1.43;;;2.70;99.90;1.80;97811;;;;556157;254;24110;-84
2023/12/21 07:02:33;;;;;;;5.13;2.40;;;2.70;99.90;1.90;97800;;;;556057;254;25179;-82
2023/12/21 07:04:57;;;;;;;2.73;2.40;;;2.80;99.90;1.90;97795;;;;553607;254;24144;-75
2023/12/21 07:07:26;;;;;;;1.90;1.80;;;2.90;99.90;2.00;97802;;;;556183;254;24086;-80
2023/12/21 07:09:54;;;;;;;1.50;1.40;;;2.90;99.90;2.00;97794;;;;555889;254;24119;-77
2023/12/21 07:12:24;;;;;;;1.10;1.10;;;2.90;99.90;2.10;97798;;;;556189;254;24129;-81
2023/12/21 07:14:50;;;;;;;0.80;0.73;;;3.00;99.90;2.10;97788;;;;555094;252;24134;-77
2023/12/21 07:17:20;;;;;;;1.00;1.00;;;3.00;99.90;2.10;97790;;;;555612;254;24095;-76
2023/12/21 07:19:46;;;;;;;1.40;1.07;;;3.10;99.90;2.10;97776;;;;554763;254;24116;-78
2023/12/21 07:22:14;;;;;;;2.40;0.93;;;3.10;99.90;2.20;97778;;;;555423;254;24092;-79
2023/12/21 07:24:42;;;;;;;1.13;1.10;;;3.10;99.90;2.20;97768;;;;555578;254;24114;-82
2023/12/21 07:27:10;;;;;;;1.00;1.00;;;3.10;99.90;2.30;97761;;;;555451;254;24098;-78
2023/12/21 07:29:38;;;;;;;1.17;1.07;;;3.20;99.90;2.30;97759;;;;555702;254;24128;-76
2023/12/21 07:32:07;;;;;;;2.80;1.37;;;3.30;99.90;2.30;97758;;;;555698;255;24107;-77
2023/12/21 07:34:35;;;;;;;1.03;1.00;;;3.20;99.90;2.40;97744;;;;555718;254;24121;-77
2023/12/21 07:37:02;;;;;;;1.67;1.53;;;3.30;99.90;2.40;97740;;;;555562;255;24100;-78
2023/12/21 07:39:30;;;;;;;2.13;1.57;;;3.30;99.90;2.40;97725;;;;555558;255;24075;-76
2023/12/21 07:41:58;;;;;;;1.37;1.30;;;3.40;99.90;2.50;97729;;;;555128;255;24088;-77
2023/12/21 07:44:27;;;;;;;2.12;1.92;;;3.50;99.90;2.60;97731;;;;550008;255;35188;-77
2023/12/21 07:46:55;;;;;;;2.43;1.57;;;3.50;99.90;2.70;97721;;;;554726;255;24172;-76
2023/12/21 07:49:23;;;;;;;1.50;1.40;;;3.60;99.90;2.70;97699;;;;554848;255;24079;-76
2023/12/21 07:51:54;;;;;;;1.40;1.30;;;3.60;99.90;2.70;97699;;;;555217;255;24102;-82
2023/12/21 07:54:19;;;;;;;2.17;1.90;;;3.70;99.90;2.80;97694;;;;554685;255;24140;-76
2023/12/21 07:56:47;;;;;;;1.63;1.53;;;3.70;99.90;2.80;97689;;;;555202;255;24084;-82
2023/12/21 07:59:17;;;;;;;1.50;1.40;;;3.80;99.90;2.90;97688;;;;555725;253;24111;-80
2023/12/21 08:01:46;;;;;;;1.17;1.03;;;3.90;99.90;2.90;97676;;;;555065;255;24085;-82
2023/12/21 08:04:17;;;;;;;1.73;1.63;;;3.90;99.90;2.90;97675;;;;555798;255;24175;-78
2023/12/21 08:06:48;;;;;;;1.43;1.40;;;3.90;99.90;2.90;97676;;;;555412;255;24113;-84
2023/12/21 08:09:16;;;;;;;1.63;1.40;;;3.90;99.90;2.90;97664;;;;557010;254;24097;-87
2023/12/21 08:11:43;;;;;;;2.67;1.90;;;3.90;99.90;3.00;97661;;;;556711;254;24100;-87
2023/12/21 08:14:11;;;;;;;0.97;0.93;;;4.00;99.90;3.00;97655;;;;556134;254;24096;-86
2023/12/21 08:16:43;;;;;;;1.40;1.30;;;4.00;99.90;3.00;97654;;;;555903;253;24145;-88
2023/12/21 08:19:08;;;;;;;1.50;1.40;;;4.00;99.90;3.00;97647;;;;555196;254;24124;-87
2023/12/21 08:21:36;;;;;;;1.30;0.93;;;4.00;99.90;3.00;97638;;;;556146;254;24114;-76
2023/12/21 08:24:04;;;;;;;1.57;1.47;;;4.00;99.90;3.00;97638;;;;555793;254;24112;-77
2023/12/21 08:26:31;;;;;;;1.50;1.20;;;4.00;99.90;3.00;97637;;;;555468;254;24108;-78
2023/12/21 08:29:07;;;;;;;3.00;2.20;;;4.00;99.90;3.00;97610;;;;612199;228;34561;-78
2023/12/21 08:31:35;;;;;;;1.47;1.33;;;4.00;99.90;2.90;97616;;;;595933;237;24036;-83
2023/12/21 08:34:03;;;;;;;1.27;1.17;;;4.00;99.90;3.00;97616;;;;595627;237;24055;-79
2023/12/21 08:36:31;;;;;;;0.93;0.93;;;4.00;99.90;3.00;97611;;;;595676;237;24083;-77
2023/12/21 08:39:02;;;;;;;0.97;0.97;;;4.00;99.90;3.00;97602;;;;595441;237;24079;-81
2023/12/21 08:41:27;;;;;;;3.43;1.43;;;4.00;99.90;3.10;97598;;;;595078;237;24033;-79
2023/12/21 08:43:58;;;;;;;0.80;0.80;;;4.00;99.90;3.10;97593;;;;595471;237;24077;-79
2023/12/21 08:46:24;;;;;;;1.43;1.33;;;4.10;99.90;3.10;97587;;;;594403;237;24037;-79
2023/12/21 08:48:53;;;;;;;1.37;1.27;;;4.10;99.90;3.20;97585;;;;594834;237;24074;-78
2023/12/21 08:51:22;;;;;;;0.80;0.80;;;4.10;99.90;3.20;97583;;;;594757;237;24043;-82
2023/12/21 08:53:48;;;;;;;2.63;1.30;;;4.20;99.90;3.20;97570;;;;594801;237;24054;-81
2023/12/21 08:56:16;;;;;;;1.07;1.07;;;4.20;99.90;3.20;97564;;;;594800;237;24048;-79
2023/12/21 08:58:44;;;;;;;1.27;1.17;;;4.20;99.90;3.30;97562;;;;594886;237;24032;-77
2023/12/21 09:01:13;;;;;;;0.97;0.97;;;4.30;99.90;3.30;97561;;;;595200;237;24088;-78
2023/12/21 09:03:42;;;;;;;1.67;1.43;;;4.30;99.90;3.40;97551;;;;594906;237;24081;-77
2023/12/21 09:06:09;;;;;;;0.93;0.83;;;4.30;99.90;3.40;97537;;;;594876;237;24082;-78
2023/12/21 09:08:37;;;;;;;2.80;1.13;;;4.40;99.90;3.40;97529;;;;593084;241;24067;-80
2023/12/21 09:11:05;;;;;;;0.90;0.90;;;4.40;99.90;3.50;97518;;;;584009;241;24108;-81
2023/12/21 09:13:32;;;;;;;2.10;1.80;;;4.40;99.90;3.40;97515;;;;579025;241;35115;-79
2023/12/21 09:16:00;;;;;;;2.17;1.93;;;4.40;99.90;3.50;97509;;;;584034;241;25486;-79
2023/12/21 09:18:28;;;;;;;9.37;1.30;;;4.40;99.90;3.50;97482;;;;592778;241;24078;-81
2023/12/21 09:20:56;;;;;;;3.77;1.90;;;4.50;99.90;3.60;97480;;;;583597;241;24077;-77
2023/12/21 09:23:25;;;;;;;1.27;1.23;;;4.50;99.90;3.60;97467;;;;583751;241;24084;-82
2023/12/21 09:25:53;;;;;;;1.47;0.93;;;4.50;99.90;3.60;97451;;;;583575;241;24113;-80
2023/12/21 09:28:22;;;;;;;0.80;0.80;;;4.50;99.90;3.60;97442;;;;581613;241;24145;-81
2023/12/21 09:30:52;;;;;;;1.27;1.00;;;4.60;99.90;3.60;97434;;;;584075;241;24071;-80
2023/12/21 09:33:18;;;;;;;2.27;1.47;;;4.60;99.90;3.60;97425;;;;583812;241;24078;-77
2023/12/21 09:35:44;;;;;;;1.20;1.10;;;4.60;99.90;3.60;97416;;;;584021;241;24060;-78
2023/12/21 09:38:12;;;;;;;1.83;1.40;;;4.60;99.90;3.70;97403;;;;584109;239;24094;-79
2023/12/21 09:40:40;;;;;;;1.10;1.10;;;4.60;99.90;3.70;97409;;;;585552;241;24058;-79
2023/12/21 09:43:09;;;;;;;1.63;0.70;;;4.60;99.90;3.70;97396;;;;584932;241;24158;-77
2023/12/21 09:45:39;;;;;;;0.97;0.93;;;4.60;99.90;3.70;97390;;;;591570;241;24123;-81
2023/12/21 09:48:05;;;;;;;1.73;1.37;;;4.50;99.90;3.70;97367;;;;593206;241;24072;-78
2023/12/21 09:50:35;;;;;;;2.00;1.90;;;4.60;99.90;3.70;97366;;;;584114;241;24126;-83
2023/12/21 09:53:04;;;;;;;4.27;1.93;;;4.70;99.90;3.80;97355;;;;584136;241;25109;-85
2023/12/21 09:55:30;;;;;;;1.83;1.33;;;4.70;99.90;3.70;97347;;;;590782;241;24087;-79
2023/12/21 09:58:01;;;;;;;1.40;0.90;;;4.70;99.90;3.70;97347;;;;593077;237;24071;-84
2023/12/21 10:00:26;;;;;;;2.10;1.70;;;4.60;99.90;3.70;97331;;;;590577;241;24068;-85
2023/12/21 10:02:53;;;;;;;1.40;1.30;;;4.60;99.90;3.70;97320;;;;584249;241;24079;-84
2023/12/21 10:05:21;;;;;;;1.70;1.00;;;4.70;99.90;3.70;97316;;;;584324;241;24132;-78
2023/12/21 10:07:52;;;;;;;1.40;1.20;;;4.70;99.90;3.70;97311;;;;584285;241;24088;-81
2023/12/21 10:10:20;;;;;;;1.37;1.27;;;4.60;99.90;3.80;97291;;;;593074;241;24079;-85
2023/12/21 10:12:48;;;;;;;1.13;1.10;;;4.70;99.90;3.90;97282;;;;583892;241;24063;-83
2023/12/21 10:15:15;;;;;;;3.07;1.63;;;4.80;99.90;4.00;97286;;;;583692;242;24145;-78
2023/12/21 10:17:43;;;;;;;1.27;1.17;;;4.90;99.90;4.00;97283;;;;583541;242;24185;-78
2023/12/21 10:20:14;;;;;;;1.30;1.23;;;5.00;99.90;4.00;97282;;;;592553;238;24079;-81
2023/12/21 10:22:46;;;;;;;11.43;1.17;;;4.90;99.90;4.00;97269;;;;583707;242;24097;-79
2023/12/21 10:25:13;;;;;;;1.10;0.93;;;4.90;99.90;4.00;97254;;;;592516;242;24060;-81
2023/12/21 10:27:41;;;;;;;0.90;0.90;;;5.00;99.90;4.00;97243;;;;590315;242;24089;-81
2023/12/21 10:30:10;;;;;;;1.00;1.00;;;5.00;99.90;4.00;97239;;;;583565;242;24166;-81
2023/12/21 10:32:35;;;;;;;1.13;1.10;;;5.00;99.90;4.00;97215;;;;586166;242;24114;-80
2023/12/21 10:35:02;;;;;;;1.73;0.97;;;5.00;99.90;4.10;97213;;;;584018;242;24070;-81
2023/12/21 10:37:30;;;;;;;3.90;1.07;;;5.00;99.90;4.10;97197;;;;584219;242;24143;-82
2023/12/21 10:39:58;;;;;;;1.10;1.10;;;5.00;99.90;4.20;97196;;;;584292;242;24059;-83
2023/12/21 10:42:26;;;;;;;1.10;1.07;;;5.10;99.90;4.30;97189;;;;584091;242;24048;-80
2023/12/21 10:44:54;;;;;;;2.30;1.37;;;5.20;99.90;4.30;97183;;;;584053;242;24107;-81
2023/12/21 10:47:22;;;;;;;1.57;1.47;;;5.20;99.90;4.30;97167;;;;583996;242;24067;-85
2023/12/21 10:49:52;;;;;;;1.47;1.37;;;5.20;99.90;4.30;97159;;;;592549;239;24079;-80
2023/12/21 10:52:18;;;;;;;1.07;1.07;;;5.20;99.90;4.20;97133;;;;593850;241;24195;-81
2023/12/21 10:54:45;;;;;;;1.07;1.07;;;5.20;99.90;4.20;97122;;;;584336;241;24075;-79
2023/12/21 10:57:13;;;;;;;1.60;1.50;;;5.10;99.90;4.20;97114;;;;583785;241;24119;-83
2023/12/21 10:59:46;;;;;;;1.70;1.60;;;5.10;99.90;4.10;97095;;;;580159;246;26355;-79
2023/12/21 11:02:10;;;;;;;1.20;1.20;;;5.10;99.90;4.10;97092;;;;581547;246;24136;-80
2023/12/21 11:04:42;;;;;;;2.70;1.83;;;5.10;99.90;4.20;97070;;;;582476;245;24151;-83
2023/12/21 11:07:09;;;;;;;3.17;1.93;;;5.00;99.90;4.20;97064;;;;573733;246;24088;-80
2023/12/21 11:09:35;;;;;;;2.13;1.73;;;5.10;99.90;4.20;97050;;;;573004;246;24130;-82
2023/12/21 11:12:06;;;;;;;1.93;1.77;;;5.10;99.90;4.10;97041;;;;573228;246;24101;-83
2023/12/21 11:14:31;;;;;;;2.30;1.90;;;5.10;99.90;4.10;97021;;;;579702;246;24093;-83
2023/12/21 11:16:59;;;;;;;2.43;2.20;;;5.00;99.90;4.00;97003;;;;582027;245;24138;-83
2023/12/21 11:19:32;;;;;;;2.70;2.50;;;4.90;99.90;4.00;97000;;;;581771;246;24145;-79
2023/12/21 11:22:03;;;;;;;3.10;2.80;;;4.90;99.90;3.90;96985;;;;581468;246;24144;-82
2023/12/21 11:24:28;;;;;;;1.47;1.37;;;4.90;99.90;3.90;96964;;;;581816;246;24171;-84
2023/12/21 11:26:56;;;;;;;2.97;2.70;;;4.80;99.90;3.80;96958;;;;581873;242;24095;-80
2023/12/21 11:29:28;;;;;;;3.07;2.63;;;4.70;99.90;3.80;96950;;;;572790;246;24118;-80
2023/12/21 11:31:55;;;;;;;2.10;1.90;;;4.70;99.90;3.70;96944;;;;572551;246;24139;-80
2023/12/21 11:34:21;;;;;;;2.70;2.27;;;4.60;99.90;3.70;96945;;;;581962;246;24102;-79